sensor_id;sensor_type;location;lat;lon;timestamp;P1;durP1;ratioP1;P2;durP2;ratioP2
59054;SDS011;44845;51.444;7.460;2023-07-30T00:01:46;5.30;;;2.42;;
59054;SDS011;44845;51.444;7.460;2023-07-30T00:04:12;6.18;;;2.38;;
59054;SDS011;44845;51.444;7.460;2023-07-30T00:06:37;7.07;;;2.67;;
59054;SDS011;44845;51.444;7.460;2023-07-30T00:09:03;4.22;;;1.98;;
59054;SDS011;44845;51.444;7.460;2023-07-30T00:11:29;2.83;;;1.88;;
59054;SDS011;44845;51.444;7.460;2023-07-30T00:13:54;5.53;;;2.13;;
59054;SDS011;44845;51.444;7.460;2023-07-30T00:16:19;5.80;;;1.92;;
59054;SDS011;44845;51.444;7.460;2023-07-30T00:18:45;4.05;;;2.08;;
59054;SDS011;44845;51.444;7.460;2023-07-30T00:21:10;4.80;;;2.35;;
59054;SDS011;44845;51.444;7.460;2023-07-30T00:23:35;6.50;;;1.73;;
59054;SDS011;44845;51.444;7.460;2023-07-30T00:26:01;9.55;;;2.13;;
59054;SDS011;44845;51.444;7.460;2023-07-30T00:28:26;3.90;;;1.55;;
59054;SDS011;44845;51.444;7.460;2023-07-30T00:30:51;3.20;;;1.55;;
59054;SDS011;44845;51.444;7.460;2023-07-30T00:33:17;9.38;;;2.40;;
59054;SDS011;44845;51.444;7.460;2023-07-30T00:35:42;4.15;;;2.00;;
59054;SDS011;44845;51.444;7.460;2023-07-30T00:38:07;5.43;;;2.17;;
59054;SDS011;44845;51.444;7.460;2023-07-30T00:40:33;5.05;;;1.90;;
59054;SDS011;44845;51.444;7.460;2023-07-30T00:43:05;2.65;;;1.75;;
59054;SDS011;44845;51.444;7.460;2023-07-30T00:45:30;2.53;;;1.55;;
59054;SDS011;44845;51.444;7.460;2023-07-30T00:47:56;5.57;;;1.92;;
59054;SDS011;44845;51.444;7.460;2023-07-30T00:50:21;9.18;;;1.92;;
59054;SDS011;44845;51.444;7.460;2023-07-30T00:52:47;3.13;;;1.80;;
59054;SDS011;44845;51.444;7.460;2023-07-30T00:55:13;7.90;;;1.83;;
59054;SDS011;44845;51.444;7.460;2023-07-30T00:57:40;3.42;;;1.80;;
59054;SDS011;44845;51.444;7.460;2023-07-30T01:00:06;4.75;;;1.63;;
59054;SDS011;44845;51.444;7.460;2023-07-30T01:02:34;4.85;;;1.95;;
59054;SDS011;44845;51.444;7.460;2023-07-30T01:05:01;9.57;;;1.88;;
59054;SDS011;44845;51.444;7.460;2023-07-30T01:07:28;11.25;;;1.95;;
59054;SDS011;44845;51.444;7.460;2023-07-30T01:09:54;3.28;;;1.35;;
59054;SDS011;44845;51.444;7.460;2023-07-30T01:12:19;4.57;;;1.85;;
59054;SDS011;44845;51.444;7.460;2023-07-30T01:14:46;9.23;;;2.00;;
59054;SDS011;44845;51.444;7.460;2023-07-30T01:17:12;6.93;;;1.88;;
59054;SDS011;44845;51.444;7.460;2023-07-30T01:19:38;3.08;;;1.60;;
59054;SDS011;44845;51.444;7.460;2023-07-30T01:22:04;4.95;;;2.10;;
59054;SDS011;44845;51.444;7.460;2023-07-30T01:24:29;8.75;;;1.98;;
59054;SDS011;44845;51.444;7.460;2023-07-30T01:26:55;3.03;;;2.20;;
59054;SDS011;44845;51.444;7.460;2023-07-30T01:29:40;7.45;;;1.88;;
59054;SDS011;44845;51.444;7.460;2023-07-30T01:32:11;4.05;;;2.08;;
59054;SDS011;44845;51.444;7.460;2023-07-30T01:34:37;7.45;;;1.88;;
59054;SDS011;44845;51.444;7.460;2023-07-30T01:37:08;10.88;;;2.20;;
59054;SDS011;44845;51.444;7.460;2023-07-30T01:39:37;5.13;;;2.25;;
59054;SDS011;44845;51.444;7.460;2023-07-30T01:42:04;9.25;;;1.90;;
59054;SDS011;44845;51.444;7.460;2023-07-30T01:44:30;6.53;;;2.00;;
59054;SDS011;44845;51.444;7.460;2023-07-30T01:46:55;9.05;;;2.15;;
59054;SDS011;44845;51.444;7.460;2023-07-30T01:49:20;6.22;;;2.00;;
59054;SDS011;44845;51.444;7.460;2023-07-30T01:51:46;5.60;;;1.95;;
59054;SDS011;44845;51.444;7.460;2023-07-30T01:54:11;4.03;;;1.65;;
59054;SDS011;44845;51.444;7.460;2023-07-30T01:56:36;7.55;;;1.90;;
59054;SDS011;44845;51.444;7.460;2023-07-30T01:59:02;8.35;;;1.58;;
59054;SDS011;44845;51.444;7.460;2023-07-30T02:01:27;2.10;;;1.70;;
59054;SDS011;44845;51.444;7.460;2023-07-30T02:03:52;6.13;;;1.60;;
59054;SDS011;44845;51.444;7.460;2023-07-30T02:06:18;4.30;;;2.17;;
59054;SDS011;44845;51.444;7.460;2023-07-30T02:08:43;7.38;;;1.70;;
59054;SDS011;44845;51.444;7.460;2023-07-30T02:11:08;5.93;;;1.55;;
59054;SDS011;44845;51.444;7.460;2023-07-30T02:13:34;6.82;;;2.10;;
59054;SDS011;44845;51.444;7.460;2023-07-30T02:15:59;4.05;;;1.92;;
59054;SDS011;44845;51.444;7.460;2023-07-30T02:18:24;4.03;;;1.60;;
59054;SDS011;44845;51.444;7.460;2023-07-30T02:20:50;5.47;;;1.67;;
59054;SDS011;44845;51.444;7.460;2023-07-30T02:23:15;4.70;;;2.00;;
59054;SDS011;44845;51.444;7.460;2023-07-30T02:25:41;5.53;;;2.00;;
59054;SDS011;44845;51.444;7.460;2023-07-30T02:28:07;6.10;;;1.88;;
59054;SDS011;44845;51.444;7.460;2023-07-30T02:30:33;5.78;;;1.95;;
59054;SDS011;44845;51.444;7.460;2023-07-30T02:32:58;3.17;;;1.70;;
59054;SDS011;44845;51.444;7.460;2023-07-30T02:35:24;5.93;;;2.15;;
59054;SDS011;44845;51.444;7.460;2023-07-30T02:37:49;3.63;;;2.00;;
59054;SDS011;44845;51.444;7.460;2023-07-30T02:40:15;4.13;;;1.95;;
59054;SDS011;44845;51.444;7.460;2023-07-30T02:42:40;3.20;;;1.70;;
59054;SDS011;44845;51.444;7.460;2023-07-30T02:45:05;6.75;;;2.08;;
59054;SDS011;44845;51.444;7.460;2023-07-30T02:47:31;8.63;;;2.38;;
59054;SDS011;44845;51.444;7.460;2023-07-30T02:49:56;6.15;;;2.00;;
59054;SDS011;44845;51.444;7.460;2023-07-30T02:52:22;6.15;;;2.15;;
59054;SDS011;44845;51.444;7.460;2023-07-30T02:54:47;9.30;;;2.17;;
59054;SDS011;44845;51.444;7.460;2023-07-30T02:57:12;5.80;;;2.00;;
59054;SDS011;44845;51.444;7.460;2023-07-30T02:59:38;3.58;;;2.15;;
59054;SDS011;44845;51.444;7.460;2023-07-30T03:02:04;5.85;;;2.00;;
59054;SDS011;44845;51.444;7.460;2023-07-30T03:04:30;9.95;;;2.20;;
59054;SDS011;44845;51.444;7.460;2023-07-30T03:06:56;4.30;;;2.08;;
59054;SDS011;44845;51.444;7.460;2023-07-30T03:09:21;7.20;;;1.90;;
59054;SDS011;44845;51.444;7.460;2023-07-30T03:11:47;5.30;;;1.80;;
59054;SDS011;44845;51.444;7.460;2023-07-30T03:14:12;7.20;;;2.15;;
59054;SDS011;44845;51.444;7.460;2023-07-30T03:16:38;4.60;;;1.83;;
59054;SDS011;44845;51.444;7.460;2023-07-30T03:19:03;3.40;;;1.88;;
59054;SDS011;44845;51.444;7.460;2023-07-30T03:21:28;5.40;;;1.60;;
59054;SDS011;44845;51.444;7.460;2023-07-30T03:23:53;8.65;;;1.67;;
59054;SDS011;44845;51.444;7.460;2023-07-30T03:26:19;8.50;;;2.22;;
59054;SDS011;44845;51.444;7.460;2023-07-30T03:28:44;7.20;;;2.03;;
59054;SDS011;44845;51.444;7.460;2023-07-30T03:31:10;4.03;;;1.55;;
59054;SDS011;44845;51.444;7.460;2023-07-30T03:33:35;4.50;;;2.13;;
59054;SDS011;44845;51.444;7.460;2023-07-30T03:36:01;7.00;;;2.00;;
59054;SDS011;44845;51.444;7.460;2023-07-30T03:38:27;3.90;;;1.70;;
59054;SDS011;44845;51.444;7.460;2023-07-30T03:40:53;7.40;;;2.13;;
59054;SDS011;44845;51.444;7.460;2023-07-30T03:43:18;3.35;;;1.77;;
59054;SDS011;44845;51.444;7.460;2023-07-30T03:45:43;10.18;;;1.95;;
59054;SDS011;44845;51.444;7.460;2023-07-30T03:48:09;6.40;;;1.95;;
59054;SDS011;44845;51.444;7.460;2023-07-30T03:50:34;7.20;;;2.15;;
59054;SDS011;44845;51.444;7.460;2023-07-30T03:52:59;5.57;;;2.05;;
59054;SDS011;44845;51.444;7.460;2023-07-30T03:55:25;9.57;;;2.10;;
59054;SDS011;44845;51.444;7.460;2023-07-30T03:57:50;7.18;;;1.92;;
59054;SDS011;44845;51.444;7.460;2023-07-30T04:00:16;10.10;;;2.15;;
59054;SDS011;44845;51.444;7.460;2023-07-30T04:02:41;16.35;;;2.30;;
59054;SDS011;44845;51.444;7.460;2023-07-30T04:05:06;6.18;;;1.65;;
59054;SDS011;44845;51.444;7.460;2023-07-30T04:07:32;11.18;;;2.10;;
59054;SDS011;44845;51.444;7.460;2023-07-30T04:09:57;5.53;;;1.73;;
59054;SDS011;44845;51.444;7.460;2023-07-30T04:12:22;5.85;;;1.88;;
59054;SDS011;44845;51.444;7.460;2023-07-30T04:14:48;4.90;;;1.63;;
59054;SDS011;44845;51.444;7.460;2023-07-30T04:17:13;7.38;;;2.08;;
59054;SDS011;44845;51.444;7.460;2023-07-30T04:19:38;6.50;;;2.10;;
59054;SDS011;44845;51.444;7.460;2023-07-30T04:22:04;4.78;;;2.00;;
59054;SDS011;44845;51.444;7.460;2023-07-30T04:24:29;5.15;;;1.98;;
59054;SDS011;44845;51.444;7.460;2023-07-30T04:26:54;7.88;;;2.25;;
59054;SDS011;44845;51.444;7.460;2023-07-30T04:29:20;8.23;;;2.38;;
59054;SDS011;44845;51.444;7.460;2023-07-30T04:31:45;5.13;;;2.20;;
59054;SDS011;44845;51.444;7.460;2023-07-30T04:34:11;9.02;;;1.85;;
59054;SDS011;44845;51.444;7.460;2023-07-30T04:36:36;5.13;;;2.17;;
59054;SDS011;44845;51.444;7.460;2023-07-30T04:39:01;8.38;;;2.08;;
59054;SDS011;44845;51.444;7.460;2023-07-30T04:41:27;6.13;;;2.05;;
59054;SDS011;44845;51.444;7.460;2023-07-30T04:43:52;7.78;;;2.03;;
59054;SDS011;44845;51.444;7.460;2023-07-30T04:46:18;7.55;;;2.42;;
59054;SDS011;44845;51.444;7.460;2023-07-30T04:48:43;3.28;;;1.90;;
59054;SDS011;44845;51.444;7.460;2023-07-30T04:51:08;8.50;;;3.35;;
59054;SDS011;44845;51.444;7.460;2023-07-30T04:53:34;5.57;;;2.13;;
59054;SDS011;44845;51.444;7.460;2023-07-30T04:55:59;5.75;;;2.80;;
59054;SDS011;44845;51.444;7.460;2023-07-30T04:58:24;8.10;;;2.10;;
59054;SDS011;44845;51.444;7.460;2023-07-30T05:00:50;11.60;;;2.33;;
59054;SDS011;44845;51.444;7.460;2023-07-30T05:03:15;8.35;;;2.17;;
59054;SDS011;44845;51.444;7.460;2023-07-30T05:05:41;4.03;;;2.05;;
59054;SDS011;44845;51.444;7.460;2023-07-30T05:08:06;7.15;;;2.10;;
59054;SDS011;44845;51.444;7.460;2023-07-30T05:10:32;6.40;;;1.90;;
59054;SDS011;44845;51.444;7.460;2023-07-30T05:12:57;5.22;;;2.05;;
59054;SDS011;44845;51.444;7.460;2023-07-30T05:15:22;9.60;;;2.55;;
59054;SDS011;44845;51.444;7.460;2023-07-30T05:17:48;7.35;;;2.08;;
59054;SDS011;44845;51.444;7.460;2023-07-30T05:20:13;12.45;;;2.40;;
59054;SDS011;44845;51.444;7.460;2023-07-30T05:22:39;5.43;;;2.40;;
59054;SDS011;44845;51.444;7.460;2023-07-30T05:25:04;9.93;;;2.38;;
59054;SDS011;44845;51.444;7.460;2023-07-30T05:27:30;9.15;;;2.38;;
59054;SDS011;44845;51.444;7.460;2023-07-30T05:29:56;8.70;;;2.22;;
59054;SDS011;44845;51.444;7.460;2023-07-30T05:32:22;8.27;;;2.30;;
59054;SDS011;44845;51.444;7.460;2023-07-30T05:34:47;13.65;;;2.78;;
59054;SDS011;44845;51.444;7.460;2023-07-30T05:37:13;7.22;;;2.20;;
59054;SDS011;44845;51.444;7.460;2023-07-30T05:39:38;5.47;;;2.25;;
59054;SDS011;44845;51.444;7.460;2023-07-30T05:42:03;9.23;;;2.60;;
59054;SDS011;44845;51.444;7.460;2023-07-30T05:44:29;8.85;;;2.47;;
59054;SDS011;44845;51.444;7.460;2023-07-30T05:46:54;8.43;;;2.17;;
59054;SDS011;44845;51.444;7.460;2023-07-30T05:49:19;7.40;;;2.05;;
59054;SDS011;44845;51.444;7.460;2023-07-30T05:51:45;10.70;;;2.35;;
59054;SDS011;44845;51.444;7.460;2023-07-30T05:54:11;13.45;;;2.33;;
59054;SDS011;44845;51.444;7.460;2023-07-30T05:56:37;7.00;;;2.03;;
59054;SDS011;44845;51.444;7.460;2023-07-30T05:59:02;7.43;;;2.05;;
59054;SDS011;44845;51.444;7.460;2023-07-30T06:01:28;5.53;;;2.20;;
59054;SDS011;44845;51.444;7.460;2023-07-30T06:03:53;9.85;;;2.22;;
59054;SDS011;44845;51.444;7.460;2023-07-30T06:06:18;6.82;;;2.00;;
59054;SDS011;44845;51.444;7.460;2023-07-30T06:08:51;10.05;;;2.20;;
59054;SDS011;44845;51.444;7.460;2023-07-30T06:11:17;8.50;;;2.00;;
59054;SDS011;44845;51.444;7.460;2023-07-30T06:13:42;9.02;;;1.98;;
59054;SDS011;44845;51.444;7.460;2023-07-30T06:16:08;16.92;;;2.50;;
59054;SDS011;44845;51.444;7.460;2023-07-30T06:18:33;6.03;;;1.75;;
59054;SDS011;44845;51.444;7.460;2023-07-30T06:20:58;16.23;;;2.47;;
59054;SDS011;44845;51.444;7.460;2023-07-30T06:23:24;8.38;;;2.47;;
59054;SDS011;44845;51.444;7.460;2023-07-30T06:25:49;9.02;;;1.90;;
59054;SDS011;44845;51.444;7.460;2023-07-30T06:28:14;8.63;;;2.38;;
59054;SDS011;44845;51.444;7.460;2023-07-30T06:30:40;11.55;;;2.33;;
59054;SDS011;44845;51.444;7.460;2023-07-30T06:33:05;8.55;;;2.10;;
59054;SDS011;44845;51.444;7.460;2023-07-30T06:35:30;7.30;;;2.15;;
59054;SDS011;44845;51.444;7.460;2023-07-30T06:37:56;4.78;;;1.90;;
59054;SDS011;44845;51.444;7.460;2023-07-30T06:40:21;9.43;;;1.88;;
59054;SDS011;44845;51.444;7.460;2023-07-30T06:42:46;11.98;;;2.08;;
59054;SDS011;44845;51.444;7.460;2023-07-30T06:45:12;7.60;;;1.92;;
59054;SDS011;44845;51.444;7.460;2023-07-30T06:47:37;7.40;;;2.13;;
59054;SDS011;44845;51.444;7.460;2023-07-30T06:50:05;8.07;;;1.95;;
59054;SDS011;44845;51.444;7.460;2023-07-30T06:52:33;5.95;;;1.63;;
59054;SDS011;44845;51.444;7.460;2023-07-30T06:54:58;4.78;;;1.60;;
59054;SDS011;44845;51.444;7.460;2023-07-30T06:57:24;10.30;;;2.00;;
59054;SDS011;44845;51.444;7.460;2023-07-30T06:59:49;7.30;;;1.90;;
59054;SDS011;44845;51.444;7.460;2023-07-30T07:02:15;6.45;;;1.83;;
59054;SDS011;44845;51.444;7.460;2023-07-30T07:04:40;11.55;;;2.03;;
59054;SDS011;44845;51.444;7.460;2023-07-30T07:07:05;7.47;;;2.10;;
59054;SDS011;44845;51.444;7.460;2023-07-30T07:09:31;6.78;;;2.05;;
59054;SDS011;44845;51.444;7.460;2023-07-30T07:11:56;5.93;;;1.80;;
59054;SDS011;44845;51.444;7.460;2023-07-30T07:14:22;6.28;;;1.90;;
59054;SDS011;44845;51.444;7.460;2023-07-30T07:16:47;10.48;;;2.10;;
59054;SDS011;44845;51.444;7.460;2023-07-30T07:19:13;7.65;;;2.00;;
59054;SDS011;44845;51.444;7.460;2023-07-30T07:21:39;9.25;;;1.88;;
59054;SDS011;44845;51.444;7.460;2023-07-30T07:24:05;9.10;;;1.98;;
59054;SDS011;44845;51.444;7.460;2023-07-30T07:26:30;7.35;;;1.98;;
59054;SDS011;44845;51.444;7.460;2023-07-30T07:28:56;13.43;;;2.40;;
59054;SDS011;44845;51.444;7.460;2023-07-30T07:31:21;10.15;;;2.53;;
59054;SDS011;44845;51.444;7.460;2023-07-30T07:33:47;9.95;;;2.28;;
59054;SDS011;44845;51.444;7.460;2023-07-30T07:36:12;7.07;;;1.90;;
59054;SDS011;44845;51.444;7.460;2023-07-30T07:38:39;12.85;;;2.13;;
59054;SDS011;44845;51.444;7.460;2023-07-30T07:41:04;11.00;;;2.13;;
59054;SDS011;44845;51.444;7.460;2023-07-30T07:43:30;9.50;;;2.10;;
59054;SDS011;44845;51.444;7.460;2023-07-30T07:45:55;8.48;;;1.95;;
59054;SDS011;44845;51.444;7.460;2023-07-30T07:48:20;8.90;;;2.03;;
59054;SDS011;44845;51.444;7.460;2023-07-30T07:50:46;8.48;;;2.10;;
59054;SDS011;44845;51.444;7.460;2023-07-30T07:53:11;8.95;;;1.80;;
59054;SDS011;44845;51.444;7.460;2023-07-30T07:55:36;10.65;;;2.15;;
59054;SDS011;44845;51.444;7.460;2023-07-30T07:58:02;9.43;;;2.38;;
59054;SDS011;44845;51.444;7.460;2023-07-30T08:00:27;10.88;;;2.50;;
59054;SDS011;44845;51.444;7.460;2023-07-30T08:02:53;11.38;;;2.67;;
59054;SDS011;44845;51.444;7.460;2023-07-30T08:05:18;7.43;;;1.80;;
59054;SDS011;44845;51.444;7.460;2023-07-30T08:07:45;11.30;;;2.05;;
59054;SDS011;44845;51.444;7.460;2023-07-30T08:10:11;11.18;;;2.30;;
59054;SDS011;44845;51.444;7.460;2023-07-30T08:12:37;9.52;;;2.10;;
59054;SDS011;44845;51.444;7.460;2023-07-30T08:15:02;10.35;;;2.40;;
59054;SDS011;44845;51.444;7.460;2023-07-30T08:17:27;5.88;;;1.70;;
59054;SDS011;44845;51.444;7.460;2023-07-30T08:19:54;8.07;;;2.30;;
59054;SDS011;44845;51.444;7.460;2023-07-30T08:22:19;10.68;;;2.42;;
59054;SDS011;44845;51.444;7.460;2023-07-30T08:24:44;7.28;;;2.03;;
59054;SDS011;44845;51.444;7.460;2023-07-30T08:27:10;8.30;;;2.17;;
59054;SDS011;44845;51.444;7.460;2023-07-30T08:29:35;8.07;;;2.50;;
59054;SDS011;44845;51.444;7.460;2023-07-30T08:32:00;13.40;;;2.75;;
59054;SDS011;44845;51.444;7.460;2023-07-30T08:34:26;8.88;;;2.28;;
59054;SDS011;44845;51.444;7.460;2023-07-30T08:36:51;8.57;;;1.90;;
59054;SDS011;44845;51.444;7.460;2023-07-30T08:39:17;12.77;;;2.45;;
59054;SDS011;44845;51.444;7.460;2023-07-30T08:41:43;10.10;;;2.20;;
59054;SDS011;44845;51.444;7.460;2023-07-30T08:44:09;9.25;;;2.47;;
59054;SDS011;44845;51.444;7.460;2023-07-30T08:46:34;12.75;;;2.75;;
59054;SDS011;44845;51.444;7.460;2023-07-30T08:49:00;8.88;;;2.20;;
59054;SDS011;44845;51.444;7.460;2023-07-30T08:51:25;7.72;;;1.90;;
59054;SDS011;44845;51.444;7.460;2023-07-30T08:53:51;7.00;;;2.00;;
59054;SDS011;44845;51.444;7.460;2023-07-30T08:56:17;10.63;;;2.40;;
59054;SDS011;44845;51.444;7.460;2023-07-30T08:58:43;9.15;;;2.58;;
59054;SDS011;44845;51.444;7.460;2023-07-30T09:01:10;8.25;;;2.30;;
59054;SDS011;44845;51.444;7.460;2023-07-30T09:03:37;8.88;;;2.00;;
59054;SDS011;44845;51.444;7.460;2023-07-30T09:06:04;8.63;;;2.13;;
59054;SDS011;44845;51.444;7.460;2023-07-30T09:08:30;12.98;;;2.00;;
59054;SDS011;44845;51.444;7.460;2023-07-30T09:10:57;6.82;;;2.17;;
59054;SDS011;44845;51.444;7.460;2023-07-30T09:13:22;17.50;;;2.80;;
59054;SDS011;44845;51.444;7.460;2023-07-30T09:15:51;12.32;;;2.58;;
59054;SDS011;44845;51.444;7.460;2023-07-30T09:18:17;8.10;;;2.17;;
59054;SDS011;44845;51.444;7.460;2023-07-30T09:20:45;8.52;;;2.30;;
59054;SDS011;44845;51.444;7.460;2023-07-30T09:23:11;8.10;;;2.30;;
59054;SDS011;44845;51.444;7.460;2023-07-30T09:25:37;10.43;;;2.53;;
59054;SDS011;44845;51.444;7.460;2023-07-30T09:28:04;10.40;;;2.72;;
59054;SDS011;44845;51.444;7.460;2023-07-30T09:30:30;5.43;;;2.00;;
59054;SDS011;44845;51.444;7.460;2023-07-30T09:32:58;8.05;;;2.15;;
59054;SDS011;44845;51.444;7.460;2023-07-30T09:35:24;5.78;;;1.85;;
59054;SDS011;44845;51.444;7.460;2023-07-30T09:37:57;9.50;;;2.00;;
59054;SDS011;44845;51.444;7.460;2023-07-30T09:40:34;10.40;;;2.05;;
59054;SDS011;44845;51.444;7.460;2023-07-30T09:43:05;7.50;;;2.00;;
59054;SDS011;44845;51.444;7.460;2023-07-30T09:45:32;9.30;;;2.08;;
59054;SDS011;44845;51.444;7.460;2023-07-30T09:48:00;7.38;;;1.50;;
59054;SDS011;44845;51.444;7.460;2023-07-30T09:50:29;9.98;;;2.08;;
59054;SDS011;44845;51.444;7.460;2023-07-30T09:52:54;9.35;;;2.15;;
59054;SDS011;44845;51.444;7.460;2023-07-30T09:55:21;15.00;;;2.47;;
59054;SDS011;44845;51.444;7.460;2023-07-30T09:57:46;9.35;;;2.03;;
59054;SDS011;44845;51.444;7.460;2023-07-30T10:00:11;10.95;;;1.58;;
59054;SDS011;44845;51.444;7.460;2023-07-30T10:02:38;9.60;;;1.92;;
59054;SDS011;44845;51.444;7.460;2023-07-30T10:05:10;7.75;;;1.92;;
59054;SDS011;44845;51.444;7.460;2023-07-30T10:07:43;11.23;;;1.50;;
59054;SDS011;44845;51.444;7.460;2023-07-30T10:10:14;8.80;;;1.60;;
59054;SDS011;44845;51.444;7.460;2023-07-30T10:12:39;10.57;;;2.15;;
59054;SDS011;44845;51.444;7.460;2023-07-30T10:15:08;9.30;;;2.22;;
59054;SDS011;44845;51.444;7.460;2023-07-30T10:17:34;11.35;;;2.22;;
59054;SDS011;44845;51.444;7.460;2023-07-30T10:20:21;10.45;;;2.22;;
59054;SDS011;44845;51.444;7.460;2023-07-30T10:22:52;7.90;;;1.83;;
59054;SDS011;44845;51.444;7.460;2023-07-30T10:25:27;9.35;;;2.20;;
59054;SDS011;44845;51.444;7.460;2023-07-30T10:27:54;10.82;;;2.13;;
59054;SDS011;44845;51.444;7.460;2023-07-30T10:30:21;6.57;;;1.65;;
59054;SDS011;44845;51.444;7.460;2023-07-30T10:35:41;11.35;;;2.53;;
59054;SDS011;44845;51.444;7.460;2023-07-30T10:38:12;5.85;;;2.00;;
59054;SDS011;44845;51.444;7.460;2023-07-30T10:40:41;10.23;;;2.58;;
59054;SDS011;44845;51.444;7.460;2023-07-30T10:43:16;16.15;;;2.28;;
59054;SDS011;44845;51.444;7.460;2023-07-30T10:45:48;6.35;;;1.67;;
59054;SDS011;44845;51.444;7.460;2023-07-30T10:48:15;8.03;;;2.10;;
59054;SDS011;44845;51.444;7.460;2023-07-30T10:50:41;10.60;;;1.85;;
59054;SDS011;44845;51.444;7.460;2023-07-30T10:53:07;7.53;;;1.45;;
59054;SDS011;44845;51.444;7.460;2023-07-30T10:55:33;11.30;;;2.30;;
59054;SDS011;44845;51.444;7.460;2023-07-30T10:57:59;5.07;;;1.40;;
59054;SDS011;44845;51.444;7.460;2023-07-30T11:00:24;10.07;;;1.80;;
59054;SDS011;44845;51.444;7.460;2023-07-30T11:02:54;11.88;;;1.50;;
59054;SDS011;44845;51.444;7.460;2023-07-30T11:05:19;7.22;;;1.40;;
59054;SDS011;44845;51.444;7.460;2023-07-30T11:07:51;6.32;;;1.60;;
59054;SDS011;44845;51.444;7.460;2023-07-30T11:10:17;5.03;;;1.15;;
59054;SDS011;44845;51.444;7.460;2023-07-30T11:12:43;8.07;;;1.90;;
59054;SDS011;44845;51.444;7.460;2023-07-30T11:15:08;5.28;;;1.15;;
59054;SDS011;44845;51.444;7.460;2023-07-30T11:17:35;4.25;;;1.42;;
59054;SDS011;44845;51.444;7.460;2023-07-30T11:20:00;9.13;;;1.75;;
59054;SDS011;44845;51.444;7.460;2023-07-30T11:22:30;6.30;;;1.45;;
59054;SDS011;44845;51.444;7.460;2023-07-30T11:24:56;4.10;;;1.33;;
59054;SDS011;44845;51.444;7.460;2023-07-30T11:27:22;9.38;;;1.50;;
59054;SDS011;44845;51.444;7.460;2023-07-30T11:29:54;5.70;;;1.30;;
59054;SDS011;44845;51.444;7.460;2023-07-30T11:32:20;9.02;;;1.63;;
59054;SDS011;44845;51.444;7.460;2023-07-30T11:34:48;4.65;;;1.30;;
59054;SDS011;44845;51.444;7.460;2023-07-30T11:37:14;8.43;;;1.40;;
59054;SDS011;44845;51.444;7.460;2023-07-30T11:39:40;12.00;;;1.70;;
59054;SDS011;44845;51.444;7.460;2023-07-30T11:42:05;7.10;;;1.10;;
59054;SDS011;44845;51.444;7.460;2023-07-30T11:44:31;6.78;;;1.23;;
59054;SDS011;44845;51.444;7.460;2023-07-30T11:46:59;6.28;;;1.40;;
59054;SDS011;44845;51.444;7.460;2023-07-30T11:49:24;6.65;;;1.23;;
59054;SDS011;44845;51.444;7.460;2023-07-30T11:51:50;8.77;;;1.20;;
59054;SDS011;44845;51.444;7.460;2023-07-30T11:54:20;9.73;;;1.33;;
59054;SDS011;44845;51.444;7.460;2023-07-30T11:59:19;6.55;;;1.20;;
59054;SDS011;44845;51.444;7.460;2023-07-30T12:01:46;7.20;;;1.30;;
59054;SDS011;44845;51.444;7.460;2023-07-30T12:04:11;11.98;;;1.40;;
59054;SDS011;44845;51.444;7.460;2023-07-30T12:06:38;7.90;;;1.30;;
59054;SDS011;44845;51.444;7.460;2023-07-30T12:09:10;9.43;;;1.50;;
59054;SDS011;44845;51.444;7.460;2023-07-30T12:14:18;6.43;;;1.27;;
59054;SDS011;44845;51.444;7.460;2023-07-30T12:16:44;5.38;;;1.17;;
59054;SDS011;44845;51.444;7.460;2023-07-30T12:19:09;7.03;;;1.35;;
59054;SDS011;44845;51.444;7.460;2023-07-30T12:21:35;5.57;;;1.17;;
59054;SDS011;44845;51.444;7.460;2023-07-30T12:24:01;6.80;;;1.40;;
59054;SDS011;44845;51.444;7.460;2023-07-30T12:26:26;5.57;;;1.40;;
59054;SDS011;44845;51.444;7.460;2023-07-30T12:28:51;5.40;;;1.33;;
59054;SDS011;44845;51.444;7.460;2023-07-30T12:31:17;6.78;;;1.60;;
59054;SDS011;44845;51.444;7.460;2023-07-30T12:33:43;9.65;;;1.42;;
59054;SDS011;44845;51.444;7.460;2023-07-30T12:36:08;5.88;;;1.10;;
59054;SDS011;44845;51.444;7.460;2023-07-30T12:38:34;6.80;;;1.40;;
59054;SDS011;44845;51.444;7.460;2023-07-30T12:40:59;7.05;;;1.15;;
59054;SDS011;44845;51.444;7.460;2023-07-30T12:43:24;6.30;;;1.05;;
59054;SDS011;44845;51.444;7.460;2023-07-30T12:45:50;5.80;;;0.95;;
59054;SDS011;44845;51.444;7.460;2023-07-30T12:48:15;5.13;;;1.27;;
59054;SDS011;44845;51.444;7.460;2023-07-30T12:50:41;6.85;;;1.42;;
59054;SDS011;44845;51.444;7.460;2023-07-30T12:53:06;7.47;;;1.38;;
59054;SDS011;44845;51.444;7.460;2023-07-30T12:55:32;5.93;;;1.13;;
59054;SDS011;44845;51.444;7.460;2023-07-30T12:57:57;7.38;;;1.30;;
59054;SDS011;44845;51.444;7.460;2023-07-30T13:00:23;6.28;;;1.00;;
59054;SDS011;44845;51.444;7.460;2023-07-30T13:02:49;6.00;;;1.23;;
59054;SDS011;44845;51.444;7.460;2023-07-30T13:05:17;7.22;;;0.90;;
59054;SDS011;44845;51.444;7.460;2023-07-30T13:07:42;4.35;;;1.00;;
59054;SDS011;44845;51.444;7.460;2023-07-30T13:10:08;3.10;;;0.80;;
59054;SDS011;44845;51.444;7.460;2023-07-30T13:12:34;4.20;;;1.15;;
59054;SDS011;44845;51.444;7.460;2023-07-30T13:15:00;5.28;;;1.00;;
59054;SDS011;44845;51.444;7.460;2023-07-30T13:17:26;7.28;;;1.02;;
59054;SDS011;44845;51.444;7.460;2023-07-30T13:19:51;4.00;;;0.77;;
59054;SDS011;44845;51.444;7.460;2023-07-30T13:22:16;5.70;;;0.82;;
59054;SDS011;44845;51.444;7.460;2023-07-30T13:24:42;5.00;;;0.98;;
59054;SDS011;44845;51.444;7.460;2023-07-30T13:27:07;6.20;;;0.98;;
59054;SDS011;44845;51.444;7.460;2023-07-30T13:29:32;2.65;;;0.60;;
59054;SDS011;44845;51.444;7.460;2023-07-30T13:31:58;3.88;;;0.90;;
59054;SDS011;44845;51.444;7.460;2023-07-30T13:34:23;2.25;;;0.85;;
59054;SDS011;44845;51.444;7.460;2023-07-30T13:36:48;3.75;;;0.73;;
59054;SDS011;44845;51.444;7.460;2023-07-30T13:39:14;2.15;;;0.60;;
59054;SDS011;44845;51.444;7.460;2023-07-30T13:41:40;5.57;;;0.60;;
59054;SDS011;44845;51.444;7.460;2023-07-30T13:44:05;2.67;;;0.70;;
59054;SDS011;44845;51.444;7.460;2023-07-30T13:46:30;4.65;;;0.90;;
59054;SDS011;44845;51.444;7.460;2023-07-30T13:48:56;2.33;;;0.38;;
59054;SDS011;44845;51.444;7.460;2023-07-30T13:51:21;3.65;;;0.70;;
59054;SDS011;44845;51.444;7.460;2023-07-30T13:53:46;5.82;;;0.77;;
59054;SDS011;44845;51.444;7.460;2023-07-30T13:56:12;2.53;;;0.70;;
59054;SDS011;44845;51.444;7.460;2023-07-30T13:58:37;4.43;;;0.82;;
59054;SDS011;44845;51.444;7.460;2023-07-30T14:01:04;4.35;;;0.70;;
59054;SDS011;44845;51.444;7.460;2023-07-30T14:03:31;4.10;;;0.60;;
59054;SDS011;44845;51.444;7.460;2023-07-30T14:05:56;6.03;;;0.70;;
59054;SDS011;44845;51.444;7.460;2023-07-30T14:08:22;3.65;;;0.70;;
59054;SDS011;44845;51.444;7.460;2023-07-30T14:10:48;3.15;;;0.90;;
59054;SDS011;44845;51.444;7.460;2023-07-30T14:13:13;4.22;;;0.75;;
59054;SDS011;44845;51.444;7.460;2023-07-30T14:15:38;2.50;;;1.00;;
59054;SDS011;44845;51.444;7.460;2023-07-30T14:18:04;6.88;;;0.88;;
59054;SDS011;44845;51.444;7.460;2023-07-30T14:20:29;2.55;;;0.77;;
59054;SDS011;44845;51.444;7.460;2023-07-30T14:22:54;3.47;;;0.95;;
59054;SDS011;44845;51.444;7.460;2023-07-30T14:25:20;3.28;;;0.90;;
59054;SDS011;44845;51.444;7.460;2023-07-30T14:27:45;4.50;;;0.95;;
59054;SDS011;44845;51.444;7.460;2023-07-30T14:30:11;3.28;;;0.70;;
59054;SDS011;44845;51.444;7.460;2023-07-30T14:32:36;6.55;;;1.00;;
59054;SDS011;44845;51.444;7.460;2023-07-30T14:35:01;5.53;;;0.80;;
59054;SDS011;44845;51.444;7.460;2023-07-30T14:37:27;5.82;;;1.30;;
59054;SDS011;44845;51.444;7.460;2023-07-30T14:39:52;4.97;;;1.15;;
59054;SDS011;44845;51.444;7.460;2023-07-30T14:42:18;4.53;;;0.70;;
59054;SDS011;44845;51.444;7.460;2023-07-30T14:44:43;5.80;;;1.17;;
59054;SDS011;44845;51.444;7.460;2023-07-30T14:47:08;5.43;;;1.00;;